Humidity-temperature Sensor

Selected Measurement Type: Air Temperature

 
Air Temperature [°C]     6 entries per hour
Showing data from 2/26/2016 (00:00:00 Z) to 2/25/2016 (00:01:00 Z)
Previous Next [ Day | 3-Days | 7-Days ]
First Last
Prev [ Day | 3-Days | 7-Days ] Next
First Last

Start Time:     :
End Time:     :     
Time (in GMT) :00 :50 :40 :30 :20 :10
Previous Next [ Day | 3-Days | 7-Days ]
First Last
Prev [ Day | 3-Days | 7-Days ] Next
First Last


123 => good data
MM => data is determined as missing
-- => data not received/configured
Back to Top Back to Top
2/26/2016 00:00 to 23:10 28.40 28.25 28.33 28.29 28.30 27.98
2/25/2016 23:00 to 22:10 28.11 28.42 28.39 28.33 28.05 28.35
2/25/2016 22:00 to 21:10 28.20 28.37 28.39 28.39 28.29 28.36
2/25/2016 21:00 to 20:10 28.46 28.45 28.41 28.39 28.39 28.47
2/25/2016 20:00 to 19:10 28.47 28.35 28.15 28.38 28.49 28.32
2/25/2016 19:00 to 18:10 28.42 28.23 28.15 28.20 28.18 27.90
2/25/2016 18:00 to 17:10 27.87 27.90 27.97 28.04 27.99 28.12
2/25/2016 17:00 to 16:10 27.96 27.79 27.83 28.09 28.00 27.95
2/25/2016 16:00 to 15:10 28.07 27.75 27.58 27.58 27.37 26.86
2/25/2016 15:00 to 14:10 27.17 27.06 27.16 26.97 26.77 26.83
2/25/2016 14:00 to 13:10 26.84 27.05 27.49 28.22 28.33 28.24
2/25/2016 13:00 to 12:10 28.22 28.06 27.67 27.40 27.87 28.25
2/25/2016 12:00 to 11:10 28.26 28.28 28.07 28.28 28.18 28.03
2/25/2016 11:00 to 10:10 28.24 28.20 28.23 28.25 28.31 28.29
2/25/2016 10:00 to 9:10 28.25 28.27 28.37 28.35 28.43 28.35
2/25/2016 09:00 to 8:10 28.34 28.36 28.49 28.48 28.37 28.49
2/25/2016 08:00 to 7:10 28.47 28.48 28.50 28.52 28.44 28.56
2/25/2016 07:00 to 6:10 28.45 28.38 28.35 28.42 28.21 28.15
2/25/2016 06:00 to 5:10 28.40 28.47 28.25 28.16 28.19 28.36
2/25/2016 05:00 to 4:10 28.23 28.31 28.25 28.22 27.96 28.31
2/25/2016 04:00 to 3:10 28.72 28.65 28.56 28.62 28.47 28.67
2/25/2016 03:00 to 2:10 28.66 28.65 28.64 28.67 28.71 28.81
2/25/2016 02:00 to 1:10 28.70 28.63 28.70 28.63 28.64 28.53
2/25/2016 01:00 to 0:10 28.40 28.71 28.68 28.68 28.74 28.72